createdAt,value
2023-05-08T00:01:46.794Z,16.40
2023-05-08T00:04:28.803Z,16.20
2023-05-08T00:07:02.378Z,16.30
2023-05-08T00:09:38.313Z,16.30
2023-05-08T00:12:14.459Z,16.10
2023-05-08T00:14:53.277Z,16.00
2023-05-08T00:17:28.023Z,16.10
2023-05-08T00:20:07.594Z,16.10
2023-05-08T00:22:41.821Z,16.30
2023-05-08T00:25:15.581Z,16.40
2023-05-08T00:27:52.102Z,16.30
2023-05-08T00:30:27.850Z,16.30
2023-05-08T00:33:03.606Z,16.30
2023-05-08T00:35:40.439Z,16.30
2023-05-08T00:38:16.967Z,16.40
2023-05-08T00:40:59.120Z,16.40
2023-05-08T00:43:33.545Z,16.30
2023-05-08T00:46:08.683Z,16.30
2023-05-08T00:48:47.065Z,16.60
2023-05-08T00:51:25.336Z,16.50
2023-05-08T00:53:59.632Z,16.70
2023-05-08T00:56:43.451Z,16.60
2023-05-08T00:59:23.010Z,16.70
2023-05-08T01:02:04.812Z,16.70
2023-05-08T01:04:46.597Z,16.70
2023-05-08T01:07:25.894Z,16.70
2023-05-08T01:10:08.429Z,16.90
2023-05-08T01:13:07.081Z,17.00
2023-05-08T01:15:51.965Z,17.10
2023-05-08T01:21:29.279Z,16.80
2023-05-08T01:24:34.001Z,16.80
2023-05-08T01:27:52.859Z,16.90
2023-05-08T01:31:07.353Z,16.90
2023-05-08T01:33:53.784Z,16.90
2023-05-08T01:36:33.057Z,17.10
2023-05-08T01:39:25.880Z,17.10
2023-05-08T01:42:18.741Z,16.90
2023-05-08T01:45:01.918Z,17.00
2023-05-08T01:47:38.161Z,17.00
2023-05-08T01:50:35.288Z,17.20
2023-05-08T01:53:24.117Z,17.30
2023-05-08T01:56:33.559Z,17.40
2023-05-08T01:59:11.815Z,17.40
2023-05-08T02:01:49.250Z,17.60
2023-05-08T02:04:34.768Z,17.60
2023-05-08T02:07:17.281Z,17.30
2023-05-08T02:09:54.520Z,17.40
2023-05-08T02:12:29.050Z,17.10
2023-05-08T02:15:08.264Z,17.40
2023-05-08T02:17:48.078Z,17.20
2023-05-08T02:20:26.917Z,17.00
2023-05-08T02:23:04.874Z,17.10
2023-05-08T02:25:42.368Z,16.90
2023-05-08T02:28:21.024Z,16.70
2023-05-08T02:30:57.384Z,16.90
2023-05-08T02:33:36.739Z,17.20
2023-05-08T02:36:12.749Z,17.20
2023-05-08T02:39:05.076Z,17.30
2023-05-08T02:41:40.358Z,17.30
2023-05-08T02:44:16.601Z,17.70
2023-05-08T02:47:00.282Z,17.60
2023-05-08T02:49:37.958Z,17.50
2023-05-08T02:52:32.510Z,17.60
2023-05-08T02:55:14.243Z,17.50
2023-05-08T02:58:00.649Z,17.50
2023-05-08T03:00:47.017Z,17.60
2023-05-08T03:03:31.601Z,18.00
2023-05-08T03:06:10.295Z,17.80
2023-05-08T03:08:49.685Z,17.50
2023-05-08T03:11:48.729Z,17.40
2023-05-08T03:14:26.523Z,17.40
2023-05-08T03:17:01.033Z,17.60
2023-05-08T03:19:42.909Z,18.00
2023-05-08T03:22:21.534Z,18.10
2023-05-08T03:25:01.139Z,18.10
2023-05-08T03:27:38.010Z,18.60
2023-05-08T03:30:17.659Z,18.40
2023-05-08T03:33:02.029Z,18.50
2023-05-08T03:35:37.694Z,18.00
2023-05-08T03:38:12.789Z,18.00
2023-05-08T03:40:49.930Z,18.10
2023-05-08T03:43:26.545Z,18.20
2023-05-08T03:46:05.570Z,18.20
2023-05-08T03:48:49.861Z,18.40
2023-05-08T03:51:28.528Z,18.60
2023-05-08T03:54:04.753Z,18.40
2023-05-08T03:56:43.524Z,18.20
2023-05-08T03:59:27.887Z,17.70
2023-05-08T04:02:16.314Z,17.90
2023-05-08T04:04:58.522Z,17.80
2023-05-08T04:10:57.118Z,17.50
2023-05-08T04:13:36.447Z,17.10
2023-05-08T04:19:25.376Z,17.10
2023-05-08T04:22:06.590Z,17.30
2023-05-08T04:24:49.234Z,17.20
2023-05-08T04:27:35.621Z,17.10
2023-05-08T04:30:19.602Z,17.50
2023-05-08T04:33:00.257Z,17.60
2023-05-08T04:35:39.029Z,17.70
2023-05-08T04:38:17.722Z,17.90
2023-05-08T04:40:55.506Z,17.40
2023-05-08T04:43:39.241Z,17.50
2023-05-08T04:49:32.085Z,18.00
2023-05-08T04:52:07.627Z,18.10
2023-05-08T04:54:45.428Z,18.00
2023-05-08T04:57:21.700Z,18.20
2023-05-08T04:59:58.740Z,18.10
2023-05-08T05:02:37.546Z,17.70
2023-05-08T05:05:18.510Z,17.70
2023-05-08T05:07:55.325Z,17.60
2023-05-08T05:10:38.303Z,17.60
2023-05-08T05:13:12.370Z,18.00
2023-05-08T05:15:52.762Z,18.20
2023-05-08T05:18:34.641Z,17.90
2023-05-08T05:21:11.668Z,17.90
2023-05-08T05:23:47.284Z,17.60
2023-05-08T05:26:25.180Z,17.70
2023-05-08T05:28:59.354Z,17.90
2023-05-08T05:32:08.006Z,17.30
2023-05-08T05:34:54.304Z,17.10
2023-05-08T05:37:44.164Z,17.80
2023-05-08T05:40:21.779Z,17.70
2023-05-08T05:42:59.822Z,17.90
2023-05-08T05:45:34.809Z,17.90
2023-05-08T05:48:11.820Z,17.70
2023-05-08T05:50:50.692Z,17.80
2023-05-08T05:53:27.800Z,17.90
2023-05-08T05:56:06.506Z,17.70
2023-05-08T05:58:42.782Z,18.00
2023-05-08T06:01:16.817Z,18.30
2023-05-08T06:03:55.805Z,17.80
2023-05-08T06:06:42.745Z,18.10
2023-05-08T06:09:33.097Z,17.80
2023-05-08T06:12:23.676Z,17.60
2023-05-08T06:15:13.064Z,17.60
2023-05-08T06:17:50.466Z,17.50
2023-05-08T06:20:34.004Z,17.80
2023-05-08T06:23:09.535Z,17.80
2023-05-08T06:25:47.873Z,17.50
2023-05-08T06:28:29.550Z,17.60
2023-05-08T06:31:08.373Z,17.50
2023-05-08T06:33:50.474Z,17.20
2023-05-08T06:36:26.127Z,17.10
2023-05-08T06:39:04.282Z,17.40
2023-05-08T06:41:44.697Z,17.30
2023-05-08T06:44:25.380Z,17.20
2023-05-08T06:47:02.624Z,16.60
2023-05-08T06:49:44.112Z,16.60
2023-05-08T06:52:21.783Z,16.50
2023-05-08T06:55:06.741Z,16.60
2023-05-08T06:57:43.806Z,16.80
2023-05-08T07:00:21.229Z,16.70
2023-05-08T07:03:00.166Z,16.70
2023-05-08T07:05:35.101Z,16.60
2023-05-08T07:08:09.798Z,16.50
2023-05-08T07:10:49.383Z,16.30
2023-05-08T07:13:31.904Z,16.40
2023-05-08T07:16:07.350Z,16.60
2023-05-08T07:18:45.023Z,16.60
2023-05-08T07:21:20.097Z,16.60
2023-05-08T07:23:55.370Z,16.80
2023-05-08T07:26:31.242Z,16.60
2023-05-08T07:29:11.641Z,16.70
2023-05-08T07:31:49.798Z,16.90
2023-05-08T07:34:28.277Z,16.90
2023-05-08T07:37:03.880Z,16.50
2023-05-08T07:39:37.462Z,16.70
2023-05-08T07:42:14.470Z,16.90
2023-05-08T07:44:54.739Z,16.60
2023-05-08T07:47:31.601Z,16.60
2023-05-08T07:50:11.688Z,16.50
2023-05-08T07:52:50.524Z,16.60
2023-05-08T07:55:26.614Z,16.60
2023-05-08T07:58:01.081Z,16.80
2023-05-08T08:00:40.857Z,16.70
2023-05-08T08:03:15.900Z,16.70
2023-05-08T08:05:50.720Z,16.80
2023-05-08T08:08:25.964Z,16.90
2023-05-08T08:13:55.988Z,16.70
2023-05-08T08:16:45.300Z,16.50
2023-05-08T08:19:22.976Z,16.60
2023-05-08T08:22:01.540Z,16.40
2023-05-08T08:24:35.205Z,16.30
2023-05-08T08:27:14.479Z,16.40
2023-05-08T08:29:49.765Z,16.20
2023-05-08T08:32:35.218Z,16.30
2023-05-08T08:35:14.761Z,16.40
2023-05-08T08:37:55.428Z,16.50
2023-05-08T08:40:32.411Z,16.80
2023-05-08T08:43:13.080Z,16.80
2023-05-08T08:45:51.569Z,16.30
2023-05-08T08:48:28.628Z,16.40
2023-05-08T08:51:11.804Z,16.40
2023-05-08T08:53:51.689Z,16.30
2023-05-08T08:56:32.100Z,16.30
2023-05-08T08:59:14.375Z,16.30
2023-05-08T09:01:52.723Z,16.20
2023-05-08T09:04:31.474Z,16.20
2023-05-08T09:07:06.918Z,16.30
2023-05-08T09:09:46.365Z,16.10
2023-05-08T09:12:22.328Z,15.80
2023-05-08T09:15:00.242Z,15.90
2023-05-08T09:17:36.540Z,15.90
2023-05-08T09:20:13.755Z,16.20
2023-05-08T09:22:50.234Z,16.40
2023-05-08T09:25:24.878Z,16.40
2023-05-08T09:28:23.040Z,16.40
2023-05-08T09:31:01.012Z,16.40
2023-05-08T09:33:56.573Z,16.40
2023-05-08T09:36:39.314Z,16.50
2023-05-08T09:39:17.593Z,16.20
2023-05-08T09:42:07.422Z,16.20
2023-05-08T09:44:56.332Z,16.20
2023-05-08T09:47:31.070Z,16.00
2023-05-08T09:50:12.336Z,16.20
2023-05-08T09:55:53.645Z,16.40
2023-05-08T09:58:28.140Z,16.30
2023-05-08T10:01:07.303Z,16.10
2023-05-08T10:03:56.561Z,16.10
2023-05-08T10:06:32.126Z,16.20
2023-05-08T10:09:28.902Z,16.20
2023-05-08T10:12:24.840Z,16.30
2023-05-08T10:15:13.424Z,16.20
2023-05-08T10:17:56.386Z,16.20
2023-05-08T10:20:39.535Z,16.10
2023-05-08T10:23:18.252Z,15.90
2023-05-08T10:26:03.945Z,15.70
2023-05-08T10:28:46.181Z,15.80
2023-05-08T10:31:27.523Z,15.80
2023-05-08T10:34:06.272Z,15.70
2023-05-08T10:36:43.227Z,15.50
2023-05-08T10:39:24.788Z,15.70
2023-05-08T10:42:05.114Z,15.70
2023-05-08T10:44:39.818Z,15.60
2023-05-08T10:50:23.018Z,15.60
2023-05-08T10:53:11.760Z,15.50
2023-05-08T10:55:50.975Z,15.60
2023-05-08T10:58:40.126Z,15.80
2023-05-08T11:01:22.110Z,15.90
2023-05-08T11:04:00.417Z,16.00
2023-05-08T11:07:04.146Z,16.10
2023-05-08T11:09:56.681Z,16.00
2023-05-08T11:12:43.977Z,16.20
2023-05-08T11:15:24.659Z,16.10
2023-05-08T11:18:03.282Z,16.40
2023-05-08T11:20:51.692Z,16.30
2023-05-08T11:23:30.287Z,16.20
2023-05-08T11:26:08.445Z,15.90
2023-05-08T11:29:16.276Z,15.80
2023-05-08T11:32:01.652Z,16.10
2023-05-08T11:34:55.920Z,16.30
2023-05-08T11:37:35.361Z,15.90
2023-05-08T11:40:46.631Z,15.70
2023-05-08T11:43:48.805Z,15.70
2023-05-08T11:46:34.811Z,15.60
2023-05-08T11:49:24.683Z,15.80
2023-05-08T11:52:08.135Z,15.90
2023-05-08T11:54:52.162Z,15.90
2023-05-08T11:57:27.210Z,15.50
2023-05-08T12:00:03.702Z,15.40
2023-05-08T12:02:49.619Z,15.50
2023-05-08T12:05:32.832Z,15.40
2023-05-08T12:08:19.410Z,15.30
2023-05-08T12:11:05.435Z,15.20
2023-05-08T12:13:47.704Z,15.50
2023-05-08T12:16:29.990Z,15.40
2023-05-08T12:19:15.691Z,15.40
2023-05-08T12:21:54.557Z,15.40
2023-05-08T12:24:30.551Z,15.20
2023-05-08T12:27:10.326Z,15.10
2023-05-08T12:29:53.243Z,15.20
2023-05-08T12:32:31.392Z,15.30
2023-05-08T12:35:07.019Z,15.30
2023-05-08T12:37:53.471Z,15.40
2023-05-08T12:40:47.196Z,15.40
2023-05-08T12:43:21.579Z,15.50
2023-05-08T12:45:59.241Z,15.70
2023-05-08T12:48:42.183Z,15.60
2023-05-08T12:51:23.351Z,15.90
2023-05-08T12:54:04.694Z,15.90
2023-05-08T12:56:40.417Z,15.80
2023-05-08T12:59:16.979Z,15.80
2023-05-08T13:01:59.133Z,15.70
2023-05-08T13:04:38.605Z,15.60
2023-05-08T13:07:18.787Z,15.30
2023-05-08T13:10:07.519Z,15.40
2023-05-08T13:12:46.397Z,15.30
2023-05-08T13:15:23.602Z,15.40
2023-05-08T13:18:01.159Z,15.60
2023-05-08T13:20:36.331Z,15.50
2023-05-08T13:23:18.279Z,15.30
2023-05-08T13:25:58.002Z,15.50
2023-05-08T13:28:35.866Z,15.60
2023-05-08T13:31:28.261Z,15.50
2023-05-08T13:37:12.590Z,15.10
2023-05-08T13:39:47.291Z,15.10
2023-05-08T13:42:32.177Z,15.00
2023-05-08T13:45:30.922Z,15.10
2023-05-08T13:54:17.831Z,15.10
2023-05-08T13:56:56.369Z,15.10
2023-05-08T13:59:33.289Z,15.30
2023-05-08T14:02:10.710Z,15.20
2023-05-08T14:04:46.400Z,15.40
2023-05-08T14:07:25.736Z,15.40
2023-05-08T14:10:03.290Z,15.40
2023-05-08T14:12:39.310Z,15.50
2023-05-08T14:15:29.200Z,15.70
2023-05-08T14:18:24.507Z,15.60
2023-05-08T14:21:01.188Z,15.50
2023-05-08T14:26:25.857Z,15.30
2023-05-08T14:29:11.689Z,15.30
2023-05-08T14:32:04.172Z,15.40
2023-05-08T14:34:43.677Z,15.30
2023-05-08T14:37:19.133Z,15.40
2023-05-08T14:39:57.793Z,15.10
2023-05-08T14:42:40.054Z,14.90
2023-05-08T14:45:19.551Z,15.00
2023-05-08T14:48:04.828Z,15.00
2023-05-08T14:50:42.073Z,15.00
2023-05-08T14:53:25.456Z,15.20
2023-05-08T14:56:06.876Z,15.10
2023-05-08T14:58:47.318Z,15.00
2023-05-08T15:01:32.605Z,15.00
2023-05-08T15:04:18.970Z,15.00
2023-05-08T15:06:57.383Z,15.10
2023-05-08T15:09:35.556Z,15.10
2023-05-08T15:12:22.468Z,15.20
2023-05-08T15:15:01.497Z,15.10
2023-05-08T15:17:47.408Z,15.10
2023-05-08T15:20:29.451Z,15.10
2023-05-08T15:23:08.182Z,15.00
2023-05-08T15:25:47.171Z,15.10
2023-05-08T15:34:10.240Z,15.50
2023-05-08T15:36:53.560Z,15.50
2023-05-08T15:39:33.447Z,15.20
2023-05-08T15:42:08.932Z,15.20
2023-05-08T15:45:02.651Z,15.50
2023-05-08T15:47:40.284Z,15.50
2023-05-08T15:50:23.739Z,15.50
2023-05-08T15:53:03.082Z,15.40
2023-05-08T15:55:51.419Z,15.30
2023-05-08T15:58:47.051Z,15.20
2023-05-08T16:01:27.651Z,15.30
2023-05-08T16:04:05.888Z,15.50
2023-05-08T16:06:51.771Z,15.60
2023-05-08T16:09:32.856Z,15.60
2023-05-08T16:12:13.210Z,15.60
2023-05-08T16:14:53.877Z,15.50
2023-05-08T16:17:35.483Z,15.50
2023-05-08T16:20:14.849Z,15.40
2023-05-08T16:22:58.770Z,15.30
2023-05-08T16:25:44.798Z,15.30
2023-05-08T16:28:24.729Z,15.20
2023-05-08T16:31:02.802Z,15.20
2023-05-08T16:33:41.229Z,15.30
2023-05-08T16:36:19.956Z,15.20
2023-05-08T16:39:01.474Z,15.40
2023-05-08T16:41:41.595Z,15.50
2023-05-08T16:44:19.296Z,15.40
2023-05-08T16:46:56.092Z,15.30
2023-05-08T16:49:31.004Z,15.20
2023-05-08T16:52:06.133Z,15.30
2023-05-08T16:54:47.590Z,15.20
2023-05-08T16:57:48.067Z,15.30
2023-05-08T17:00:24.648Z,15.30
2023-05-08T17:02:59.876Z,15.20
2023-05-08T17:05:48.458Z,15.10
2023-05-08T17:08:24.983Z,15.30
2023-05-08T17:11:00.452Z,15.30
2023-05-08T17:13:39.497Z,15.20
2023-05-08T17:16:14.287Z,15.20
2023-05-08T17:24:42.672Z,15.30
2023-05-08T17:27:20.902Z,15.30
2023-05-08T17:30:09.905Z,15.30
2023-05-08T17:32:49.636Z,15.30
2023-05-08T17:35:26.497Z,15.40
2023-05-08T17:40:58.519Z,15.30
2023-05-08T17:43:39.393Z,15.40
2023-05-08T17:46:15.513Z,15.40
2023-05-08T17:48:52.824Z,15.40
2023-05-08T17:51:27.449Z,15.20
2023-05-08T17:54:02.677Z,15.20
2023-05-08T17:56:42.294Z,15.20
2023-05-08T17:59:19.611Z,15.10
2023-05-08T18:01:52.806Z,15.00
2023-05-08T18:04:27.738Z,14.90
2023-05-08T18:07:05.486Z,15.10
2023-05-08T18:12:41.069Z,15.30
2023-05-08T18:15:20.587Z,15.20
2023-05-08T18:17:55.043Z,15.10
2023-05-08T18:20:35.048Z,15.30
2023-05-08T18:23:08.399Z,15.20
2023-05-08T18:25:47.210Z,15.30
2023-05-08T18:28:28.151Z,15.10
2023-05-08T18:31:04.321Z,15.20
2023-05-08T18:33:40.610Z,15.30
2023-05-08T18:36:15.476Z,15.40
2023-05-08T18:38:50.931Z,15.30
2023-05-08T18:41:26.814Z,15.40
2023-05-08T18:44:06.200Z,15.10
2023-05-08T18:46:45.696Z,15.20
2023-05-08T18:49:23.457Z,15.10
2023-05-08T18:52:00.283Z,15.10
2023-05-08T18:54:34.576Z,15.20
2023-05-08T18:57:10.562Z,15.30
2023-05-08T18:59:51.852Z,15.50
2023-05-08T19:02:29.141Z,15.40
2023-05-08T19:05:13.840Z,15.40
2023-05-08T19:07:50.265Z,15.30
2023-05-08T19:10:31.565Z,15.40
2023-05-08T19:13:06.777Z,15.50
2023-05-08T19:15:51.748Z,15.50
2023-05-08T19:18:30.801Z,15.60
2023-05-08T19:21:05.653Z,15.50
2023-05-08T19:23:39.925Z,15.50
2023-05-08T19:26:18.253Z,15.60
2023-05-08T19:28:52.770Z,15.70
2023-05-08T19:31:30.269Z,15.70
2023-05-08T19:34:10.796Z,15.40
2023-05-08T19:36:51.354Z,15.50
2023-05-08T19:39:28.827Z,15.60
2023-05-08T19:42:06.602Z,15.50
2023-05-08T19:44:41.895Z,15.40
2023-05-08T19:47:19.927Z,15.40
2023-05-08T19:49:55.821Z,15.50
2023-05-08T19:52:31.280Z,15.40
2023-05-08T19:55:06.680Z,15.50
2023-05-08T19:57:43.133Z,15.60
2023-05-08T20:00:18.555Z,15.70
2023-05-08T20:02:58.725Z,15.70
2023-05-08T20:05:35.825Z,15.90
2023-05-08T20:08:12.957Z,15.90
2023-05-08T20:10:52.349Z,15.90
2023-05-08T20:13:29.294Z,15.90
2023-05-08T20:16:06.970Z,16.00
2023-05-08T20:18:46.922Z,16.10
2023-05-08T20:21:23.888Z,16.00
2023-05-08T20:23:58.379Z,16.00
2023-05-08T20:26:33.650Z,15.90
2023-05-08T20:29:09.019Z,15.90
2023-05-08T20:31:45.328Z,15.90
2023-05-08T20:34:26.200Z,15.90
2023-05-08T20:37:02.508Z,15.90
2023-05-08T20:39:38.975Z,16.00
2023-05-08T20:42:13.053Z,16.00
2023-05-08T20:47:42.549Z,15.70
2023-05-08T20:50:19.881Z,15.70
2023-05-08T20:52:57.674Z,15.80
2023-05-08T20:55:34.530Z,15.80
2023-05-08T20:58:09.977Z,15.90
2023-05-08T21:00:44.933Z,15.90
2023-05-08T21:03:20.891Z,16.00
2023-05-08T21:06:01.399Z,16.00
2023-05-08T21:08:36.014Z,15.90
2023-05-08T21:11:14.161Z,15.90
2023-05-08T21:13:52.050Z,15.70
2023-05-08T21:16:27.816Z,15.80
2023-05-08T21:19:05.219Z,15.80
2023-05-08T21:21:42.796Z,15.70
2023-05-08T21:24:18.753Z,15.80
2023-05-08T21:26:54.382Z,15.80
2023-05-08T21:29:30.517Z,15.80
2023-05-08T21:32:08.221Z,15.90
2023-05-08T21:34:47.284Z,15.90
2023-05-08T21:37:36.099Z,15.80
2023-05-08T21:40:13.919Z,15.80
2023-05-08T21:42:50.314Z,15.70
2023-05-08T21:45:26.171Z,15.70
2023-05-08T21:48:06.667Z,15.80
2023-05-08T21:50:45.354Z,15.70
2023-05-08T21:53:26.497Z,15.60
2023-05-08T21:56:03.256Z,15.50
2023-05-08T21:58:39.301Z,15.70
2023-05-08T22:01:15.788Z,15.70
2023-05-08T22:03:54.944Z,15.40
2023-05-08T22:06:45.080Z,15.50
2023-05-08T22:09:22.949Z,15.50
2023-05-08T22:11:59.372Z,15.50
2023-05-08T22:14:34.501Z,15.50
2023-05-08T22:17:10.496Z,15.40
2023-05-08T22:19:45.625Z,15.60
2023-05-08T22:22:26.752Z,15.60
2023-05-08T22:25:10.762Z,15.50
2023-05-08T22:27:48.325Z,15.60
2023-05-08T22:30:23.444Z,15.70
2023-05-08T22:33:09.528Z,15.80
2023-05-08T22:35:44.759Z,16.10
2023-05-08T22:38:19.537Z,16.10
2023-05-08T22:40:57.638Z,16.00
2023-05-08T22:43:33.863Z,16.10
2023-05-08T22:46:13.155Z,16.20
2023-05-08T22:48:50.674Z,16.40
2023-05-08T22:51:24.448Z,16.60
2023-05-08T22:53:59.828Z,16.70
2023-05-08T22:56:36.869Z,16.50
2023-05-08T23:02:15.882Z,16.40
2023-05-08T23:04:53.657Z,16.30
2023-05-08T23:07:36.935Z,16.60
2023-05-08T23:10:14.800Z,16.50
2023-05-08T23:12:52.679Z,16.80
2023-05-08T23:15:28.868Z,16.90
2023-05-08T23:18:10.605Z,17.00
2023-05-08T23:20:45.757Z,17.00
2023-05-08T23:23:21.687Z,16.80
2023-05-08T23:25:56.407Z,16.80
2023-05-08T23:28:31.623Z,16.90
2023-05-08T23:31:09.681Z,16.90
2023-05-08T23:33:44.620Z,17.00
2023-05-08T23:36:17.720Z,16.90
2023-05-08T23:38:57.395Z,16.60
2023-05-08T23:41:31.976Z,16.60
2023-05-08T23:44:08.705Z,16.50
2023-05-08T23:46:43.434Z,16.70
2023-05-08T23:49:21.572Z,16.80
2023-05-08T23:52:02.646Z,16.80
2023-05-08T23:54:37.496Z,16.90
2023-05-08T23:57:13.697Z,16.90
2023-05-08T23:59:51.024Z,16.80
